createdAt,value
2018-04-12T05:39:45.054Z,12.1
2018-04-12T05:40:35.420Z,12.1
2018-04-12T05:41:25.437Z,12.3
2018-04-12T05:42:15.769Z,12.3
2018-04-12T05:43:05.564Z,12.2
2018-04-12T05:43:55.618Z,12.2
2018-04-12T05:44:45.672Z,12.2
2018-04-12T05:45:35.547Z,12.1
2018-04-12T05:46:26.318Z,11.9
2018-04-12T05:47:16.155Z,12
2018-04-12T05:48:06.203Z,12.1
2018-04-12T05:48:56.260Z,12
2018-04-12T05:49:46.074Z,11.9
2018-04-12T05:50:36.117Z,11.8
2018-04-12T05:51:26.455Z,11.6
2018-04-12T05:52:16.528Z,11.6
2018-04-12T05:53:05.733Z,11.6
2018-04-12T05:53:56.366Z,11.8
2018-04-12T05:54:46.442Z,11.9
2018-04-12T05:55:36.483Z,11.8
2018-04-12T05:56:26.561Z,11.8
2018-04-12T05:57:16.905Z,12.1
2018-04-12T05:58:06.977Z,12.3
2018-04-12T05:58:57.022Z,12.3
2018-04-12T05:59:46.537Z,12.6
2018-04-12T06:00:36.585Z,12.6
2018-04-12T06:01:26.959Z,12.6
2018-04-12T06:02:17.304Z,12.3
2018-04-12T06:03:07.074Z,12.4
2018-04-12T06:03:57.384Z,12.7
2018-04-12T06:04:47.187Z,12.8
2018-04-12T06:05:37.259Z,12.9
2018-04-12T06:06:27.026Z,13.2
2018-04-12T06:07:17.642Z,13.4
2018-04-12T06:08:06.887Z,13.6
2018-04-12T06:08:57.775Z,13.9
2018-04-12T06:09:47.827Z,14.2
2018-04-12T06:10:37.883Z,14.1
2018-04-12T06:11:27.694Z,14.2
2018-04-12T06:12:18.014Z,13.9
2018-04-12T06:13:07.805Z,13.8
2018-04-12T06:13:58.205Z,14
2018-04-12T06:14:48.191Z,13.9
2018-04-12T06:15:37.719Z,13.8
2018-04-12T06:16:27.745Z,13.8
2018-04-12T06:17:18.407Z,13.8
2018-04-12T06:18:08.154Z,13.9
2018-04-12T06:18:58.235Z,13.9
2018-04-12T06:19:48.297Z,14.1
2018-04-12T06:20:38.097Z,13.9
2018-04-12T06:21:28.887Z,13.9
2018-04-12T06:22:18.767Z,14
2018-04-12T06:23:08.539Z,14.3
2018-04-12T06:23:58.896Z,14.4
2018-04-12T06:24:48.942Z,14.6
2018-04-12T06:25:38.457Z,14.7
2018-04-12T06:26:28.805Z,14.8
2018-04-12T06:27:19.146Z,14.9
2018-04-12T06:28:08.914Z,14.9
2018-04-12T06:28:58.717Z,15
2018-04-12T06:29:48.777Z,14.9
2018-04-12T06:30:39.414Z,15.1
2018-04-12T06:31:29.472Z,15.2
2018-04-12T06:32:19.251Z,15.3
2018-04-12T06:33:09.020Z,15.5
2018-04-12T06:33:59.371Z,15.4
2018-04-12T06:34:49.717Z,15.3
2018-04-12T06:35:38.942Z,15.4
2018-04-12T06:36:29.856Z,15.4
2018-04-12T06:37:19.628Z,15.4
2018-04-12T06:38:09.702Z,15.4
2018-04-12T06:38:59.444Z,15.7
2018-04-12T06:39:50.269Z,16.1
2018-04-12T06:40:39.852Z,16.1
2018-04-12T06:41:30.210Z,16.1
2018-04-12T06:42:19.744Z,15.9
2018-04-12T06:43:10.367Z,16
2018-04-12T06:44:00.406Z,16.2
2018-04-12T06:44:49.668Z,16.4
2018-04-12T06:45:40.508Z,16.2
2018-04-12T06:46:30.299Z,16
2018-04-12T06:47:20.367Z,16.1
2018-04-12T06:48:10.152Z,16.1
2018-04-12T06:49:00.765Z,16.1
2018-04-12T06:49:50.564Z,16.4
2018-04-12T06:50:40.905Z,16
2018-04-12T06:51:30.996Z,16.1
2018-04-12T06:52:20.756Z,16.3
2018-04-12T06:53:10.538Z,16.4
2018-04-12T06:54:01.240Z,16.2
2018-04-12T06:54:50.931Z,16.3
2018-04-12T06:55:41.278Z,16.3
2018-04-12T06:56:30.494Z,16.4
2018-04-12T06:57:21.408Z,16.7
2018-04-12T06:58:11.460Z,16.7
2018-04-12T06:59:01.560Z,16.3
2018-04-12T06:59:51.318Z,16.4
2018-04-12T07:00:41.665Z,16.5
2018-04-12T07:01:31.442Z,16.6
2018-04-12T07:02:21.525Z,16.7
2018-04-12T07:03:11.586Z,17.3
2018-04-12T07:04:01.960Z,17.4
2018-04-12T07:04:51.987Z,17.4
2018-04-12T07:05:41.772Z,17.6
2018-04-12T07:06:32.107Z,17.5
2018-04-12T07:07:21.599Z,17.6
2018-04-12T07:08:12.232Z,17.4
2018-04-12T07:09:02.287Z,17.5
2018-04-12T07:09:52.097Z,17.6
2018-04-12T07:10:42.466Z,17.9
2018-04-12T07:11:31.957Z,18.1
2018-04-12T07:12:22.274Z,17.9
2018-04-12T07:13:11.799Z,17.8
2018-04-12T07:14:02.671Z,17.7
2018-04-12T07:14:52.481Z,17.8
2018-04-12T07:15:42.539Z,18
2018-04-12T07:16:32.858Z,18
2018-04-12T07:17:22.681Z,18.3
2018-04-12T07:18:12.769Z,18.1
2018-04-12T07:19:02.771Z,18.1
2018-04-12T07:19:53.152Z,18.4
2018-04-12T07:20:42.898Z,18.4
2018-04-12T07:21:32.417Z,18.6
2018-04-12T07:22:22.842Z,18.6
2018-04-12T07:23:12.860Z,18.6
2018-04-12T07:24:03.162Z,18.8
2018-04-12T07:25:43.285Z,18.8
2018-04-12T07:26:33.618Z,18.6
2018-04-12T07:27:22.859Z,18.6
2018-04-12T07:28:13.205Z,18.5
2018-04-12T07:29:03.564Z,18.6
2018-04-12T07:29:53.894Z,18.9
2018-04-12T07:30:43.652Z,19.1
2018-04-12T07:31:34.014Z,19
2018-04-12T07:32:23.810Z,19.1
2018-04-12T07:33:14.140Z,19.3
2018-04-12T07:34:03.930Z,19.8
2018-04-12T07:34:54.270Z,20
2018-04-12T07:35:44.326Z,19.8
2018-04-12T07:36:34.121Z,20.1
2018-04-12T07:37:23.430Z,19.8
2018-04-12T07:38:13.697Z,19.6
2018-04-12T07:39:04.051Z,18.8
2018-04-12T07:39:54.659Z,19.3
2018-04-12T07:40:44.740Z,19.6
2018-04-12T07:41:34.524Z,19.6
2018-04-12T07:42:24.884Z,19.6
2018-04-12T07:43:14.652Z,19.5
2018-04-12T07:44:04.977Z,19.6
2018-04-12T07:44:55.039Z,19.7
2018-04-12T07:45:44.842Z,20.1
2018-04-12T07:46:34.894Z,20.3
2018-04-12T07:47:24.371Z,20
2018-04-12T07:48:15.301Z,20.1
2018-04-12T07:49:05.374Z,20.1
2018-04-12T07:49:55.454Z,20.2
2018-04-12T07:50:43.864Z,20.7
2018-04-12T07:51:34.996Z,20.8
2018-04-12T07:52:25.379Z,20.3
2018-04-12T07:53:15.674Z,20.1
2018-04-12T07:54:05.486Z,20.4
2018-04-12T07:54:55.361Z,20.4
2018-04-12T07:55:45.880Z,20.6
2018-04-12T07:56:35.951Z,20.7
2018-04-12T07:57:25.998Z,20.7
2018-04-12T07:58:16.083Z,20.4
2018-04-12T07:59:05.563Z,20.3
2018-04-12T07:59:55.658Z,20.5
2018-04-12T08:00:45.987Z,20.6
2018-04-12T08:01:36.045Z,20.5
2018-04-12T08:02:26.398Z,20.6
2018-04-12T08:03:16.464Z,20.8
2018-04-12T08:04:05.670Z,20.9
2018-04-12T08:04:56.600Z,20.3
2018-04-12T08:05:46.411Z,20.4
2018-04-12T08:06:36.423Z,20.6
2018-04-12T08:07:26.793Z,20.3
2018-04-12T08:08:16.834Z,20.1
2018-04-12T08:09:06.370Z,19.9
2018-04-12T08:09:56.670Z,19.9
2018-04-12T08:10:46.729Z,20.3
2018-04-12T08:11:37.116Z,20.9
2018-04-12T08:12:27.177Z,20.9
2018-04-12T08:13:16.667Z,21
2018-04-12T08:14:07.274Z,21.4
2018-04-12T08:14:57.084Z,21.8
2018-04-12T08:15:47.398Z,21.8
2018-04-12T08:16:37.179Z,21.7
2018-04-12T08:17:27.528Z,21.6
2018-04-12T08:18:17.589Z,21.7
2018-04-12T08:19:07.383Z,21.6
2018-04-12T08:19:57.441Z,21.4
2018-04-12T08:20:47.786Z,21.1
2018-04-12T08:21:37.619Z,20.8
2018-04-12T08:22:27.641Z,20.5
2018-04-12T08:23:18.009Z,20.9
2018-04-12T08:24:07.774Z,21.2
2018-04-12T08:24:58.132Z,20.8
2018-04-12T08:25:47.912Z,20.8
2018-04-12T08:26:38.024Z,21.1
2018-04-12T08:27:28.338Z,20.8
2018-04-12T08:29:08.453Z,21.5
2018-04-12T08:29:58.498Z,21.9
2018-04-12T08:30:48.591Z,22.1
2018-04-12T08:31:38.642Z,22.2
2018-04-12T08:32:28.439Z,22.3
2018-04-12T08:33:18.501Z,22.3
2018-04-12T08:34:08.289Z,22.4
2018-04-12T08:34:58.598Z,22.1
2018-04-12T08:35:48.673Z,21.5
2018-04-12T08:36:39.028Z,21.5
2018-04-12T08:37:28.826Z,21.3
2018-04-12T08:38:18.604Z,21.3
2018-04-12T08:39:09.216Z,21.4
2018-04-12T08:39:59.021Z,21.8
2018-04-12T08:40:49.076Z,22.4
2018-04-12T08:41:39.143Z,22.9
2018-04-12T08:42:29.204Z,22.9
2018-04-12T08:43:19.565Z,22.8
2018-04-12T08:44:09.346Z,23.1
2018-04-12T08:44:59.394Z,23
2018-04-12T08:45:49.566Z,23.1
2018-04-12T08:46:39.513Z,22.8
2018-04-12T08:47:29.331Z,22.6
2018-04-12T08:48:19.663Z,22.8
2018-04-12T08:49:09.736Z,23.1
2018-04-12T08:50:00.046Z,22.9
2018-04-12T08:50:50.146Z,22.9
2018-04-12T08:51:39.907Z,22.8
2018-04-12T08:52:29.793Z,22.6
2018-04-12T08:53:20.056Z,22.5
2018-04-12T08:54:10.105Z,22.9
2018-04-12T08:55:00.171Z,23.2
2018-04-12T08:55:50.747Z,23
2018-04-12T08:56:40.303Z,23
2018-04-12T08:57:30.088Z,22.8
2018-04-12T08:58:20.688Z,22.6
2018-04-12T08:59:10.500Z,22.8
2018-04-12T09:00:00.858Z,23.6
2018-04-12T09:00:50.333Z,23.6
2018-04-12T09:01:40.703Z,22.9
2018-04-12T09:02:30.275Z,22.9
2018-04-12T09:03:21.085Z,23.3
2018-04-12T09:04:10.599Z,22.9
2018-04-12T09:05:01.226Z,23
2018-04-12T09:05:51.003Z,22.9
2018-04-12T09:06:41.092Z,22.8
2018-04-12T09:07:31.451Z,22.8
2018-04-12T09:08:21.250Z,23.4
2018-04-12T09:09:11.001Z,23.1
2018-04-12T09:10:01.625Z,23.4
2018-04-12T09:10:51.107Z,23.1
2018-04-12T09:11:41.763Z,22.6
2018-04-12T09:12:31.820Z,23
2018-04-12T09:13:21.605Z,23.4
2018-04-12T09:14:11.946Z,23.1
2018-04-12T09:15:01.731Z,23.4
2018-04-12T09:15:51.504Z,23.1
2018-04-12T09:16:42.145Z,23
2018-04-12T09:17:32.192Z,22.8
2018-04-12T09:18:22.272Z,22.9
2018-04-12T09:19:11.856Z,23.3
2018-04-12T09:20:01.841Z,23.4
2018-04-12T09:20:52.471Z,23.2
2018-04-12T09:21:42.234Z,23.4
2018-04-12T09:22:32.610Z,23.1
2018-04-12T09:23:22.351Z,23
2018-04-12T09:24:12.438Z,23.3
2018-04-12T09:25:02.506Z,23.1
2018-04-12T09:25:52.291Z,23.3
2018-04-12T09:26:42.889Z,24.1
2018-04-12T09:27:32.683Z,23.9
2018-04-12T09:28:22.750Z,24.1
2018-04-12T09:29:13.094Z,24.4
2018-04-12T09:30:02.897Z,24.5
2018-04-12T09:30:53.236Z,24.8
2018-04-12T09:31:43.354Z,24.3
2018-04-12T09:32:33.344Z,24.4
2018-04-12T09:33:23.336Z,23.9
2018-04-12T09:34:13.234Z,23.9
2018-04-12T09:35:03.562Z,23.9
2018-04-12T09:35:53.046Z,23.5
2018-04-12T09:36:43.144Z,24.3
2018-04-12T09:37:33.481Z,24.4
2018-04-12T09:38:23.827Z,24.1
2018-04-12T09:39:13.335Z,23.5
2018-04-12T09:40:03.665Z,23.8
2018-04-12T09:40:53.710Z,23.6
2018-04-12T09:41:44.083Z,23.7
2018-04-12T09:42:33.586Z,23.8
2018-04-12T09:43:23.926Z,23.8
2018-04-12T09:44:13.707Z,24.3
2018-04-12T09:45:04.349Z,24.6
2018-04-12T09:45:54.436Z,24.9
2018-04-12T09:46:44.489Z,25.1
2018-04-12T09:47:34.541Z,24.7
2018-04-12T09:48:24.349Z,25.4
2018-04-12T09:49:14.654Z,25.9
2018-04-12T09:50:04.736Z,25.9
2018-04-12T09:50:54.799Z,26.1
2018-04-12T09:51:44.579Z,26.4
2018-04-12T09:52:34.643Z,26.8
2018-04-12T09:53:24.984Z,26.9
2018-04-12T09:54:14.483Z,26.8
2018-04-12T09:55:04.846Z,27
2018-04-12T09:55:54.881Z,26.9
2018-04-12T09:56:45.235Z,26.4
2018-04-12T09:57:35.324Z,25.8
2018-04-12T09:58:25.080Z,26.3
2018-04-12T09:59:15.433Z,26.4
2018-04-12T10:00:05.769Z,26.4
2018-04-12T10:00:55.310Z,26.5
2018-04-12T10:01:45.076Z,26.5
2018-04-12T10:02:35.432Z,26.1
2018-04-12T10:03:25.213Z,25.5
2018-04-12T10:04:15.834Z,25.3
2018-04-12T10:05:05.646Z,25.6
2018-04-12T10:05:55.394Z,26
2018-04-12T10:06:46.039Z,26.4
2018-04-12T10:07:36.097Z,26.6
2018-04-12T10:08:25.585Z,27.1
2018-04-12T10:09:15.966Z,26.9
2018-04-12T10:10:06.021Z,27.5
2018-04-12T10:10:56.355Z,27.7
2018-04-12T10:11:45.838Z,27.8
2018-04-12T10:12:35.935Z,27.5
2018-04-12T10:13:26.572Z,27.8
2018-04-12T10:14:16.366Z,27.8
2018-04-12T10:15:06.658Z,27.3
2018-04-12T10:15:56.758Z,27.4
2018-04-12T10:16:46.524Z,27.9
2018-04-12T10:17:36.591Z,27.9
2018-04-12T10:18:26.970Z,28.2
2018-04-12T10:19:16.728Z,28.2
2018-04-12T10:20:06.768Z,28.7
2018-04-12T10:20:57.163Z,28.5
2018-04-12T10:21:47.198Z,28.4
2018-04-12T10:22:36.990Z,28.4
2018-04-12T10:23:27.045Z,28.5
2018-04-12T10:24:17.123Z,28.3
2018-04-12T10:25:07.452Z,28.3
2018-04-12T10:25:57.502Z,27.9
2018-04-12T10:26:47.307Z,27.9
2018-04-12T10:29:17.793Z,27.8
2018-04-12T10:30:07.824Z,28
2018-04-12T10:30:57.615Z,28.6
2018-04-12T10:31:47.685Z,28.6
2018-04-12T10:32:38.061Z,28.4
2018-04-12T10:33:27.849Z,28.3
2018-04-12T10:34:17.879Z,28.5
2018-04-12T10:35:08.264Z,28.3
2018-04-12T10:35:58.021Z,28.3
2018-04-12T10:36:47.787Z,28.2
2018-04-12T10:37:38.164Z,28.3
2018-04-12T10:38:28.481Z,28.4
2018-04-12T10:39:18.042Z,29
2018-04-12T10:40:08.064Z,29.2
2018-04-12T10:40:58.397Z,28.9
2018-04-12T10:41:48.687Z,29.1
2018-04-12T10:42:38.812Z,28.9
2018-04-12T10:43:28.619Z,28.8
2018-04-12T10:44:18.955Z,29.1
2018-04-12T10:45:09.011Z,29
2018-04-12T10:45:59.084Z,28.8
2018-04-12T10:46:48.813Z,28.9
2018-04-12T10:47:38.931Z,28.8
2018-04-12T10:48:29.256Z,28.6
2018-04-12T10:49:19.051Z,28.8
2018-04-12T10:50:09.119Z,28.5
2018-04-12T10:50:59.462Z,28.7
2018-04-12T10:51:49.253Z,29.1
2018-04-12T10:52:39.341Z,29.3
2018-04-12T10:53:29.656Z,29.3
2018-04-12T10:54:19.723Z,28.6
2018-04-12T10:55:09.822Z,28.2
2018-04-12T10:55:59.845Z,28.7
2018-04-12T10:56:49.643Z,28.7
2018-04-12T10:57:40.030Z,28.4
2018-04-12T10:58:29.782Z,28.7
2018-04-12T10:59:19.897Z,28.6
2018-04-12T11:00:10.183Z,27.4
2018-04-12T11:01:00.254Z,27.8
2018-04-12T11:01:50.062Z,28.2
2018-04-12T11:02:40.384Z,28.2
2018-04-12T11:03:30.686Z,28.3
2018-04-12T11:04:19.952Z,28.3
2018-04-12T11:05:10.303Z,27.3
2018-04-12T11:06:00.092Z,26.9
2018-04-12T11:06:50.683Z,27.4
2018-04-12T11:07:40.492Z,27.1
2018-04-12T11:08:30.555Z,27
2018-04-12T11:09:20.625Z,26.7
2018-04-12T11:10:10.414Z,26.1
2018-04-12T11:11:01.029Z,26.7
2018-04-12T11:11:51.093Z,27.4
2018-04-12T11:12:41.164Z,27.5
2018-04-12T11:13:31.239Z,27.3
2018-04-12T11:14:21.014Z,26.3
2018-04-12T11:15:11.106Z,26.1
2018-04-12T11:16:01.470Z,26.4
2018-04-12T11:16:51.229Z,27
2018-04-12T11:17:41.539Z,27.7
2018-04-12T11:18:32.323Z,27.9
2018-04-12T11:19:21.401Z,28.4
2018-04-12T11:20:11.743Z,28.3
2018-04-12T11:21:01.885Z,27.6
2018-04-12T11:21:51.605Z,27.3
2018-04-12T11:22:41.661Z,27.7
2018-04-12T11:23:31.648Z,27.6
2018-04-12T11:24:22.219Z,27.7
2018-04-12T11:25:12.138Z,27.8
2018-04-12T11:26:02.381Z,28.1
2018-04-12T11:26:51.496Z,28.5
2018-04-12T11:27:42.370Z,27.4
2018-04-12T11:28:31.532Z,26.7
2018-04-12T11:29:22.540Z,26.4
2018-04-12T11:30:12.518Z,26.4
2018-04-12T11:31:02.039Z,26.5
2018-04-12T11:31:52.653Z,26.3
2018-04-12T11:32:41.854Z,26.9
2018-04-12T11:33:31.935Z,27.6
2018-04-12T11:34:22.486Z,28
2018-04-12T11:35:13.025Z,27.7
2018-04-12T11:36:02.997Z,27.5
2018-04-12T11:36:52.562Z,27.3
2018-04-12T11:37:42.814Z,27.1
2018-04-12T11:38:33.181Z,27.1
2018-04-12T11:39:22.956Z,27.5
2018-04-12T11:40:13.322Z,27.3
2018-04-12T11:41:03.366Z,27.7
2018-04-12T11:41:52.873Z,27.5
2018-04-12T11:42:43.216Z,27.8
2018-04-12T11:43:33.278Z,28.1
2018-04-12T11:44:23.607Z,27.6
2018-04-12T11:45:13.512Z,27.6
2018-04-12T11:46:03.505Z,27.4
2018-04-12T11:46:53.984Z,28.6
2018-04-12T11:47:43.898Z,28.9
2018-04-12T11:48:33.479Z,29.2
2018-04-12T11:49:23.171Z,29.2
2018-04-12T11:50:14.081Z,29.3
2018-04-12T11:51:03.887Z,29.5
2018-04-12T11:51:54.219Z,29.7
2018-04-12T11:52:44.267Z,29.6
2018-04-12T11:53:34.372Z,29.9
2018-04-12T11:54:24.135Z,30.2
2018-04-12T11:55:14.306Z,30.1
2018-04-12T11:56:04.060Z,30
2018-04-12T11:56:54.633Z,29.8
2018-04-12T11:57:44.414Z,29.4
2018-04-12T11:58:34.741Z,29.7
2018-04-12T11:59:24.210Z,29
2018-04-12T12:00:14.621Z,28.8
2018-04-12T12:01:04.261Z,29.3
2018-04-12T12:01:54.739Z,29.1
2018-04-12T12:02:44.308Z,29.3
2018-04-12T12:03:35.156Z,29.1
2018-04-12T12:04:24.443Z,28.7
2018-04-12T12:05:14.983Z,28.2
2018-04-12T12:06:05.048Z,27.9
2018-04-12T12:06:55.274Z,27.8
2018-04-12T12:08:35.238Z,27.7
2018-04-12T12:10:15.659Z,27.8
2018-04-12T12:11:05.709Z,27.2
2018-04-12T12:11:55.791Z,27.5
2018-04-12T12:12:45.875Z,28.3
2018-04-12T12:13:35.645Z,28.4
2018-04-12T12:14:25.706Z,28.2
2018-04-12T12:15:16.040Z,28.4
2018-04-12T12:16:05.543Z,28.3
2018-04-12T12:16:56.154Z,27.7
2018-04-12T12:18:36.024Z,28.4
2018-04-12T12:19:26.131Z,27.9
2018-04-12T12:20:16.182Z,28.3
2018-04-12T12:21:06.221Z,28.5
2018-04-12T12:21:56.575Z,28.1
2018-04-12T12:22:46.345Z,28.3
2018-04-12T12:23:36.681Z,28.8
2018-04-12T12:24:26.504Z,28.9
2018-04-12T12:25:16.807Z,28.9
2018-04-12T12:26:06.890Z,28.6
2018-04-12T12:26:56.948Z,28.8
2018-04-12T12:27:47.005Z,29
2018-04-12T12:28:36.575Z,28.7
2018-04-12T12:29:27.172Z,28.9
2018-04-12T12:30:16.928Z,28.8
2018-04-12T12:31:06.717Z,29.1
2018-04-12T12:31:57.047Z,29.3
2018-04-12T12:32:47.150Z,29.3
2018-04-12T12:33:37.184Z,29.1
2018-04-12T12:34:27.539Z,29.1
2018-04-12T12:35:17.601Z,29.1
2018-04-12T12:36:07.687Z,28.9
2018-04-12T12:36:57.741Z,28.9
2018-04-12T12:37:47.522Z,29.1
2018-04-12T12:38:37.589Z,29.5
2018-04-12T12:39:27.942Z,29.2
2018-04-12T12:40:18.011Z,29.4
2018-04-12T12:41:07.748Z,29.6
2018-04-12T12:41:57.556Z,29.4
2018-04-12T12:42:48.207Z,29.4
2018-04-12T12:43:38.261Z,29.3
2018-04-12T12:44:28.336Z,29.4
2018-04-12T12:45:17.823Z,29.5
2018-04-12T12:46:08.478Z,29.3
2018-04-12T12:46:58.533Z,29.8
2018-04-12T12:47:48.018Z,29.6
2018-04-12T12:48:37.793Z,28.5
2018-04-12T12:49:28.706Z,27.9
2018-04-12T12:50:18.503Z,28.3
2018-04-12T12:51:08.820Z,28.6
2018-04-12T12:51:58.908Z,28.8
2018-04-12T12:52:48.679Z,29.1
2018-04-12T12:53:38.477Z,28.9
2018-04-12T12:54:28.815Z,28.4
2018-04-12T12:55:18.608Z,28.3
2018-04-12T12:56:09.552Z,28.1
2018-04-12T12:56:58.429Z,27.9
2018-04-12T12:57:49.068Z,27.8
2018-04-12T12:58:39.413Z,27.3
2018-04-12T12:59:29.204Z,26.8
2018-04-12T13:00:19.576Z,26.9
2018-04-12T13:01:09.413Z,27.5
2018-04-12T13:01:59.658Z,27.3
2018-04-12T13:02:49.748Z,27.4
2018-04-12T13:03:39.049Z,27.3
2018-04-12T13:04:29.866Z,27.3
2018-04-12T13:05:19.923Z,28.1
2018-04-12T13:06:10.008Z,28.8
2018-04-12T13:06:59.789Z,29.3
2018-04-12T13:07:49.839Z,29.6
2018-04-12T13:08:39.627Z,29.6
2018-04-12T13:09:29.714Z,28.8
2018-04-12T13:10:20.043Z,27.4
2018-04-12T13:11:09.836Z,27
2018-04-12T13:12:00.178Z,27.4
2018-04-12T13:12:49.686Z,28.1
2018-04-12T13:13:40.321Z,28.5
2018-04-12T13:14:30.119Z,28.6
2018-04-12T13:15:20.716Z,29.1
2018-04-12T13:16:10.795Z,29.1
2018-04-12T13:17:00.829Z,29
2018-04-12T13:17:50.925Z,28.7
2018-04-12T13:18:40.978Z,27.6
2018-04-12T13:19:31.063Z,27.3
2018-04-12T13:20:20.841Z,27.5
2018-04-12T13:21:10.889Z,27.9
2018-04-12T13:22:00.971Z,28.2
2018-04-12T13:22:51.422Z,28.4
2018-04-12T13:23:41.380Z,28.5
2018-04-12T13:24:30.577Z,28.4
2018-04-12T13:25:21.476Z,27.3
2018-04-12T13:26:11.546Z,27.2
2018-04-12T13:27:01.331Z,27.3
2018-04-12T13:27:51.399Z,27.1
2018-04-12T13:28:41.771Z,26.9
2018-04-12T13:29:31.844Z,27.3
2018-04-12T13:30:21.881Z,27.4
2018-04-12T13:31:11.951Z,28
2018-04-12T13:32:01.417Z,28.4
2018-04-12T13:32:51.495Z,28.6
2018-04-12T13:33:42.138Z,28.6
2018-04-12T13:34:31.892Z,28.8
2018-04-12T13:35:22.271Z,29.1
2018-04-12T13:36:12.318Z,29.1
2018-04-12T13:37:02.406Z,29.2
2018-04-12T13:37:52.451Z,29.4
2018-04-12T13:38:41.962Z,29.2
2018-04-12T13:39:32.344Z,29.3
2018-04-12T13:40:22.068Z,29.5
2018-04-12T13:41:12.154Z,29.5
2018-04-12T13:42:02.784Z,28.9
2018-04-12T13:42:52.565Z,29
2018-04-12T13:43:42.904Z,28.3
2018-04-12T13:44:32.704Z,27.9
2018-04-12T13:45:23.031Z,27.9
2018-04-12T13:46:13.130Z,27.9
2018-04-12T13:47:02.650Z,28.3
2018-04-12T13:48:43.018Z,27.5
2018-04-12T13:49:33.361Z,27.6
2018-04-12T13:50:23.143Z,27.4
2018-04-12T13:51:12.809Z,26.9
2018-04-12T13:52:03.035Z,26.9
2018-04-12T13:52:53.067Z,27
2018-04-12T13:53:43.704Z,27.4
2018-04-12T13:54:33.180Z,27.6
2018-04-12T13:56:13.926Z,27.9
2018-04-12T13:57:03.768Z,27.7
2018-04-12T13:57:53.442Z,28.1
2018-04-12T13:58:43.509Z,27.7
2018-04-12T13:59:33.847Z,27.9
2018-04-12T14:00:24.219Z,28.1
2018-04-12T14:01:13.714Z,28.1
2018-04-12T14:02:03.506Z,28.1
2018-04-12T14:03:44.448Z,27.9
2018-04-12T14:04:34.571Z,27.9
2018-04-12T14:05:24.319Z,28.2
2018-04-12T14:06:14.356Z,28.4
2018-04-12T14:07:04.718Z,28.1
2018-04-12T14:07:54.210Z,28
2018-04-12T14:08:44.598Z,27.9
2018-04-12T14:09:34.339Z,27.4
2018-04-12T14:10:24.954Z,27
2018-04-12T14:11:14.749Z,27.2
2018-04-12T14:12:05.101Z,27.4
2018-04-12T14:12:55.170Z,27.6
2018-04-12T14:13:44.963Z,27.5
2018-04-12T14:14:34.715Z,27.6
2018-04-12T14:15:25.377Z,27.6
2018-04-12T14:16:15.427Z,27.6
2018-04-12T14:17:05.206Z,27.4
2018-04-12T14:17:55.558Z,27.5
2018-04-12T14:18:45.678Z,26.9
2018-04-12T14:19:35.702Z,27
2018-04-12T14:20:25.474Z,27.3
2018-04-12T14:21:15.502Z,27.5
2018-04-12T14:22:05.310Z,27.8
2018-04-12T14:22:55.927Z,28.2
2018-04-12T14:23:45.989Z,28
2018-04-12T14:24:36.046Z,27.6
2018-04-12T14:26:16.229Z,28.3
2018-04-12T14:27:06.251Z,28
2018-04-12T14:27:55.768Z,27.5
2018-04-12T14:28:45.521Z,27.4
2018-04-12T14:29:36.455Z,27.3
2018-04-12T14:30:26.512Z,27.3
2018-04-12T14:31:16.606Z,27.3
2018-04-12T14:32:06.371Z,26.4
2018-04-12T14:32:56.693Z,26
2018-04-12T14:33:46.759Z,25.9
2018-04-12T14:34:36.845Z,25.9
2018-04-12T14:35:26.906Z,26
2018-04-12T14:36:17.310Z,26.1
2018-04-12T14:37:07.019Z,26.4
2018-04-12T14:37:56.537Z,26.8
2018-04-12T14:38:46.857Z,27.3
2018-04-12T14:39:36.972Z,27.2
2018-04-12T14:40:26.980Z,26.7
2018-04-12T14:41:17.337Z,26.9
2018-04-12T14:42:07.443Z,27.3
2018-04-12T14:42:56.920Z,27.5
2018-04-12T14:43:47.517Z,27.6
2018-04-12T14:44:37.333Z,27.3
2018-04-12T14:45:27.369Z,27.1
2018-04-12T14:46:17.163Z,27.1
2018-04-12T14:47:07.821Z,27.4
2018-04-12T14:47:57.273Z,27.5
2018-04-12T14:48:47.350Z,27.1
2018-04-12T14:49:37.967Z,27.1
2018-04-12T14:50:27.757Z,26.5
2018-04-12T14:51:18.113Z,26.4
2018-04-12T14:52:08.175Z,26.4
2018-04-12T14:52:58.220Z,26.3
2018-04-12T14:53:47.451Z,26.2
2018-04-12T14:54:38.365Z,26.3
2018-04-12T14:55:28.132Z,26.3
2018-04-12T14:56:17.935Z,26.2
2018-04-12T14:57:08.320Z,25.9
2018-04-12T14:57:58.345Z,25.7
2018-04-12T14:58:48.124Z,25.8
2018-04-12T14:59:38.224Z,26
2018-04-12T15:00:28.811Z,26.1
2018-04-12T15:01:18.871Z,26.1
2018-04-12T15:02:08.972Z,26.3
2018-04-12T15:02:58.725Z,26.5
2018-04-12T15:03:48.515Z,26.6
2018-04-12T15:04:38.902Z,26.4
2018-04-12T15:05:29.193Z,26.6
2018-04-12T15:06:19.136Z,26.6
2018-04-12T15:07:08.765Z,26.3
2018-04-12T15:07:59.398Z,26.1
2018-04-12T15:08:49.188Z,26.1
2018-04-12T15:09:39.234Z,26
2018-04-12T15:10:29.585Z,26.2
2018-04-12T15:11:19.670Z,26.3
2018-04-12T15:12:09.429Z,26.2
2018-04-12T15:12:59.634Z,26.3
2018-04-12T15:13:49.565Z,26
2018-04-12T15:14:38.765Z,26
2018-04-12T15:15:29.665Z,26.3
2018-04-12T15:16:19.485Z,26.3
2018-04-12T15:17:09.833Z,26.3
2018-04-12T15:17:59.319Z,26.1
2018-04-12T15:18:50.313Z,26
2018-04-12T15:19:40.279Z,26.1
2018-04-12T15:20:30.115Z,25.9
2018-04-12T15:21:19.847Z,25.8
2018-04-12T15:22:10.002Z,25.7
2018-04-12T15:23:00.589Z,25.8
2018-04-12T15:23:50.044Z,25.8
2018-04-12T15:24:40.384Z,25.9
2018-04-12T15:25:30.167Z,25.9
2018-04-12T15:26:20.547Z,25.7
2018-04-12T15:27:10.594Z,25.8
2018-04-12T15:28:00.933Z,25.6
2018-04-12T15:28:50.694Z,25.9
2018-04-12T15:29:41.030Z,26
2018-04-12T15:30:31.110Z,26
2018-04-12T15:31:20.334Z,25.9
2018-04-12T15:32:11.468Z,26.1
2018-04-12T15:33:01.315Z,26.3
2018-04-12T15:33:51.091Z,26.4
2018-04-12T15:34:41.440Z,26.6
2018-04-12T15:35:31.198Z,26.7
2018-04-12T15:36:21.270Z,26.7
2018-04-12T15:37:11.345Z,26.8
2018-04-12T15:38:01.389Z,26.7
2018-04-12T15:38:51.500Z,26.4
2018-04-12T15:39:41.525Z,26.4
2018-04-12T15:40:31.864Z,26.6
2018-04-12T15:41:21.928Z,26.8
2018-04-12T15:42:11.717Z,26.9
2018-04-12T15:43:01.505Z,26.4
2018-04-12T15:43:51.843Z,26.5
2018-04-12T15:44:41.637Z,26.7
2018-04-12T15:45:32.239Z,26.3
2018-04-12T15:46:22.310Z,25.9
2018-04-12T15:47:12.407Z,26.1
2018-04-12T15:48:02.154Z,25.9
2018-04-12T15:48:52.495Z,25.6
2018-04-12T15:49:42.567Z,25.3
2018-04-12T15:50:32.355Z,25.4
2018-04-12T15:51:22.450Z,25.6
2018-04-12T15:52:12.226Z,25.7
2018-04-12T15:53:02.257Z,25.8
2018-04-12T15:53:52.880Z,25.8
2018-04-12T15:54:42.418Z,25.9
2018-04-12T15:55:32.841Z,25.7
2018-04-12T15:56:22.800Z,25.7
2018-04-12T15:57:12.854Z,25.6
2018-04-12T15:58:02.940Z,25.6
2018-04-12T15:58:52.697Z,25.7
2018-04-12T15:59:43.344Z,25.6
2018-04-12T16:00:33.104Z,25.6
2018-04-12T16:01:23.305Z,25.6
2018-04-12T16:02:13.509Z,25.6
2018-04-12T16:03:03.599Z,25.7
2018-04-12T16:03:53.641Z,25.4
2018-04-12T16:04:43.130Z,25.4
2018-04-12T16:05:33.770Z,25.4
2018-04-12T16:06:23.833Z,25.4
2018-04-12T16:07:13.968Z,25.3
2018-04-12T16:08:03.983Z,25.3
2018-04-12T16:08:53.739Z,25.2
2018-04-12T16:09:44.089Z,25
2018-04-12T16:10:34.175Z,25
2018-04-12T16:11:24.241Z,24.8
2018-04-12T16:12:13.743Z,24.9
2018-04-12T16:13:04.363Z,24.6
2018-04-12T16:13:54.114Z,24.6
2018-04-12T16:14:44.207Z,24.5
2018-04-12T16:15:33.990Z,24.5
2018-04-12T16:16:24.594Z,24.3
2018-04-12T16:17:14.118Z,24.2
2018-04-12T16:18:04.747Z,24.2
2018-04-12T16:18:54.793Z,24.2
2018-04-12T16:19:44.880Z,24.1
2018-04-12T16:20:34.915Z,24
2018-04-12T16:21:25.002Z,24.1
2018-04-12T16:22:14.470Z,24.1
2018-04-12T16:23:05.120Z,24.2
2018-04-12T16:23:55.190Z,24.1
2018-04-12T16:24:44.939Z,24.2
2018-04-12T16:25:35.323Z,24.2
2018-04-12T16:26:25.100Z,24.1
2018-04-12T16:27:15.172Z,24.1
2018-04-12T16:28:05.210Z,23.9
2018-04-12T16:28:55.568Z,23.9
2018-04-12T16:29:45.343Z,24
2018-04-12T16:30:35.392Z,24
2018-04-12T16:31:25.200Z,24
2018-04-12T16:32:15.812Z,23.9
2018-04-12T16:33:05.860Z,23.8
2018-04-12T16:33:55.365Z,23.7
2018-04-12T16:34:45.738Z,23.6
2018-04-12T16:35:36.097Z,23.5
2018-04-12T16:36:25.625Z,23.5
2018-04-12T16:37:15.637Z,23.4
2018-04-12T16:38:06.268Z,23.4
2018-04-12T16:38:56.359Z,23.4
2018-04-12T16:39:46.364Z,23.4
2018-04-12T16:40:36.168Z,23.4
2018-04-12T16:41:26.558Z,23.4
2018-04-12T16:42:16.548Z,23.3
2018-04-12T16:43:06.630Z,23.3
2018-04-12T16:43:56.720Z,23.3
2018-04-12T16:44:46.464Z,23.2
2018-04-12T16:45:36.837Z,23.2
2018-04-12T16:46:26.877Z,23.1
2018-04-12T16:47:16.392Z,23.1
2018-04-12T16:48:07.031Z,23.1
2018-04-12T16:48:57.085Z,23
2018-04-12T16:49:47.123Z,23
2018-04-12T16:50:36.626Z,22.9
2018-04-12T16:51:27.260Z,22.9
2018-04-12T16:52:17.375Z,22.9
2018-04-12T16:53:07.093Z,22.9
2018-04-12T16:53:56.882Z,22.8
2018-04-12T16:54:47.487Z,22.8
2018-04-12T16:55:37.581Z,22.8
2018-04-12T16:56:27.714Z,22.8
2018-04-12T16:57:17.129Z,22.8
2018-04-12T16:58:06.921Z,22.7